Friendswood, Texas
Current Conditions -  °F | °C
As of 6:16 PM on Thursday 18 Dec 2014 (Local Time) from KLVJ Reporting Station
Overcast Overcast  
Wind Chill: 67°   Ceiling: 1200
Heat Index: 67°   Visibility: 9mi
Dew Point: 63°   Wind: 9mph
Humidity: 87%   Direction: 70°ENE
Pressure: 30.05"   Gusts: NA
Location:  29.53°N, 95.2°W
Report Text: KLVJ 190016Z AUTO 07008KT 9SM BKN012 OVC017 19/17 A3005 RMK AO2 T01940172
Loading
Personal Weather Stations






























Interactive Weather Map New forecast layout! Learn more

10-Day Weather Forecast

Advertisements
Track Severe Weather on mobile